Time;durP1;ratioP1;P1;durP2;ratioP2;P2;SDS_P1;SDS_P2;PMS_P1;PMS_P2;Temp;Humidity;BMP_temperature;BMP_pressure;BME280_temperature;BME280_humidity;BME280_pressure;Samples;Min_cycle;Max_cycle;Signal;HPM_P1;HPM_P2
2022/05/22 00:00:41;;;;;;;3.17;1.10;;;13.30;85.10;;;;;;2057539;28;20038;-92
2022/05/22 00:02:01;;;;;;;3.92;1.63;;;13.20;85.20;;;;;;2048478;28;20420;-91
2022/05/22 00:03:20;;;;;;;5.15;1.35;;;13.20;85.30;;;;;;2051602;28;20051;-91
2022/05/22 00:04:39;;;;;;;5.20;1.58;;;13.20;85.40;;;;;;2046147;28;20047;-91
2022/05/22 00:05:58;;;;;;;4.00;1.38;;;13.20;85.50;;;;;;2051423;28;20038;-91
2022/05/22 00:07:18;;;;;;;2.90;1.20;;;13.20;85.60;;;;;;2046009;28;20035;-92
2022/05/22 00:08:38;;;;;;;2.55;1.35;;;13.20;85.70;;;;;;2048970;28;20074;-92
2022/05/22 00:09:57;;;;;;;3.78;1.40;;;13.20;85.70;;;;;;2044500;28;20035;-92
2022/05/22 00:11:19;;;;;;;3.20;1.30;;;13.10;85.70;;;;;;2051398;28;20035;-92
2022/05/22 00:12:40;;;;;;;6.38;1.50;;;13.10;85.80;;;;;;2053778;28;20125;-92
2022/05/22 00:14:00;;;;;;;4.05;1.40;;;13.10;85.80;;;;;;2054404;28;20118;-92
2022/05/22 00:15:20;;;;;;;3.90;1.50;;;13.10;85.70;;;;;;2050304;28;20047;-92
2022/05/22 00:16:41;;;;;;;3.80;1.52;;;13.10;85.70;;;;;;2046760;29;20080;-92
2022/05/22 00:18:00;;;;;;;3.47;1.60;;;13.20;85.70;;;;;;2047333;29;20027;-91
2022/05/22 00:19:25;;;;;;;3.95;1.20;;;13.20;85.70;;;;;;2049827;28;20468;-92
2022/05/22 00:20:44;;;;;;;4.20;1.33;;;13.20;85.80;;;;;;2060539;28;20034;-91
2022/05/22 00:22:04;;;;;;;3.72;1.25;;;13.10;85.80;;;;;;2056962;28;20039;-92
2022/05/22 00:23:24;;;;;;;3.40;1.50;;;13.20;86.40;;;;;;2046570;29;20051;-92
2022/05/22 00:24:43;;;;;;;5.47;1.30;;;13.20;85.80;;;;;;2051561;28;20113;-91
2022/05/22 00:26:03;;;;;;;3.40;1.38;;;13.20;85.80;;;;;;2046340;28;20039;-92
2022/05/22 00:27:22;;;;;;;3.25;1.30;;;13.20;85.80;;;;;;2059451;28;20079;-92
2022/05/22 00:28:41;;;;;;;3.95;1.50;;;13.20;85.80;;;;;;2047870;28;20043;-92
2022/05/22 00:30:01;;;;;;;4.45;1.60;;;13.20;85.80;;;;;;2049717;29;20051;-91
2022/05/22 00:31:20;;;;;;;3.65;1.40;;;13.10;85.70;;;;;;2049176;28;20039;-92
2022/05/22 00:32:39;;;;;;;4.72;1.25;;;13.10;85.70;;;;;;2056878;28;20047;-92
2022/05/22 00:33:58;;;;;;;5.10;1.60;;;13.10;85.90;;;;;;2052531;28;20040;-91
2022/05/22 00:35:17;;;;;;;5.10;1.40;;;13.10;86.00;;;;;;2046658;29;20508;-91
2022/05/22 00:36:37;;;;;;;3.47;1.40;;;13.10;86.00;;;;;;2051549;28;20412;-93
2022/05/22 00:37:56;;;;;;;3.22;1.30;;;13.00;86.00;;;;;;2058078;28;20034;-91
2022/05/22 00:39:15;;;;;;;4.75;1.30;;;13.00;86.10;;;;;;2049479;29;20039;-91
2022/05/22 00:40:35;;;;;;;4.20;1.50;;;13.00;86.30;;;;;;2056533;28;20439;-92
2022/05/22 00:41:56;;;;;;;2.90;1.20;;;13.00;86.40;;;;;;2049292;28;20121;-91
2022/05/22 00:43:29;;;;;;;2.97;1.23;;;12.90;86.40;;;;;;2062792;28;20034;-92
2022/05/22 00:44:48;;;;;;;5.18;1.20;;;12.90;86.40;;;;;;2074308;28;20046;-92
2022/05/22 00:46:11;;;;;;;2.97;1.13;;;12.90;86.40;;;;;;2068468;28;20030;-91
2022/05/22 00:47:30;;;;;;;3.17;1.20;;;12.90;86.50;;;;;;2068806;28;20030;-91
2022/05/22 00:48:56;;;;;;;3.17;1.30;;;12.90;86.50;;;;;;2042455;29;20052;-91
2022/05/22 00:50:15;;;;;;;3.75;1.48;;;12.80;86.60;;;;;;2056896;28;20035;-91
2022/05/22 00:51:46;;;;;;;4.55;1.50;;;12.80;86.70;;;;;;2050492;29;20039;-91
2022/05/22 00:53:05;;;;;;;;;;;12.80;86.80;;;;;;2056449;28;20043;-91
2022/05/22 00:54:43;;;;;;;3.40;1.20;;;12.80;86.70;;;;;;2049991;28;19914;-91
2022/05/22 00:56:06;;;;;;;3.65;1.42;;;12.70;86.60;;;;;;2051162;29;20074;-93
2022/05/22 00:57:36;;;;;;;3.25;1.35;;;12.70;86.70;;;;;;2070731;28;20029;-91
2022/05/22 00:58:56;;;;;;;5.05;1.40;;;12.70;86.80;;;;;;2066805;28;20494;-91
2022/05/22 01:00:19;;;;;;;4.18;1.50;;;12.70;86.80;;;;;;2052281;28;20472;-91
2022/05/22 01:01:40;;;;;;;4.28;1.40;;;12.60;86.90;;;;;;2057827;28;20099;-91
2022/05/22 01:04:44;;;;;;;3.50;1.30;;;12.60;87.10;;;;;;2060514;28;20503;-91
2022/05/22 01:06:06;;;;;;;4.07;1.48;;;12.60;87.10;;;;;;2057842;28;20043;-92
2022/05/22 01:07:26;;;;;;;4.65;1.40;;;12.50;87.20;;;;;;2055027;28;20039;-91
2022/05/22 01:08:47;;;;;;;4.18;1.40;;;12.50;87.30;;;;;;2049492;29;20520;-91
2022/05/22 01:10:07;;;;;;;3.63;1.23;;;12.50;88.10;;;;;;2041782;29;20048;-92
2022/05/22 01:11:34;;;;;;;4.50;1.50;;;12.50;87.50;;;;;;2046705;29;20489;-91
2022/05/22 01:12:54;;;;;;;3.20;1.33;;;12.50;87.60;;;;;;2056861;28;20051;-92
2022/05/22 01:14:21;;;;;;;3.78;1.45;;;12.50;87.60;;;;;;2055609;28;20042;-91
2022/05/22 01:15:40;;;;;;;5.63;1.35;;;12.50;87.60;;;;;;2049981;28;20047;-91
2022/05/22 01:17:10;;;;;;;3.75;1.35;;;12.50;87.60;;;;;;2055918;28;20039;-92
2022/05/22 01:18:39;;;;;;;3.67;1.30;;;12.50;87.70;;;;;;2053443;28;20035;-91
2022/05/22 01:20:00;;;;;;;3.10;1.40;;;12.50;87.70;;;;;;2056085;28;20102;-92
2022/05/22 01:21:26;;;;;;;4.75;1.55;;;12.40;87.80;;;;;;2063315;28;20031;-91
2022/05/22 01:22:45;;;;;;;3.55;1.50;;;12.40;87.80;;;;;;2058955;28;20031;-91
2022/05/22 01:24:06;;;;;;;2.85;1.08;;;12.40;87.90;;;;;;2048834;28;20039;-91
2022/05/22 01:25:26;;;;;;;2.85;1.10;;;12.40;87.90;;;;;;2054472;28;20441;-92
2022/05/22 01:26:46;;;;;;;3.72;1.40;;;12.40;87.90;;;;;;2045174;28;20047;-91
2022/05/22 01:28:08;;;;;;;4.68;1.30;;;12.40;88.00;;;;;;2053275;28;20031;-92
2022/05/22 01:29:27;;;;;;;3.28;1.55;;;12.40;87.90;;;;;;2050930;29;20039;-92
2022/05/22 01:30:46;;;;;;;4.15;1.95;;;12.50;88.00;;;;;;2054692;28;20038;-91
2022/05/22 01:32:06;;;;;;;2.63;1.40;;;12.40;88.10;;;;;;2059180;28;20114;-92
2022/05/22 01:33:25;;;;;;;4.57;1.50;;;12.40;88.20;;;;;;2064525;28;20026;-91
2022/05/22 01:34:44;;;;;;;3.75;1.55;;;12.40;88.30;;;;;;2057607;28;20035;-92
2022/05/22 01:36:05;;;;;;;5.15;1.50;;;12.40;89.00;;;;;;2056489;28;20039;-93
2022/05/22 01:37:24;;;;;;;3.90;1.65;;;12.30;88.50;;;;;;2062037;28;20034;-91
2022/05/22 01:38:44;;;;;;;4.53;1.90;;;12.30;88.60;;;;;;2051026;28;20071;-91
2022/05/22 01:40:04;;;;;;;4.28;1.83;;;12.30;88.80;;;;;;2050253;28;20055;-91
2022/05/22 01:41:23;;;;;;;3.83;1.38;;;12.20;88.80;;;;;;2050783;29;20039;-91
2022/05/22 01:42:43;;;;;;;4.30;1.70;;;12.20;88.80;;;;;;2053352;28;20039;-92
2022/05/22 01:44:02;;;;;;;4.00;1.40;;;12.20;88.90;;;;;;2053916;28;20043;-91
2022/05/22 01:45:26;;;;;;;3.65;1.50;;;12.20;88.90;;;;;;2031972;29;20048;-92
2022/05/22 01:46:45;;;;;;;3.03;1.48;;;12.20;89.00;;;;;;2047793;28;20039;-92
2022/05/22 01:48:05;;;;;;;3.58;1.52;;;12.20;88.90;;;;;;2054999;28;20066;-91
2022/05/22 01:49:24;;;;;;;5.53;1.95;;;12.20;89.00;;;;;;2050674;29;20043;-92
2022/05/22 01:50:45;;;;;;;3.92;1.83;;;12.20;89.00;;;;;;2058383;28;20054;-92
2022/05/22 01:52:04;;;;;;;3.80;1.38;;;12.20;89.10;;;;;;2055448;28;20039;-92
2022/05/22 01:53:24;;;;;;;4.80;1.88;;;12.10;89.20;;;;;;2047802;28;20051;-92
2022/05/22 01:54:44;;;;;;;2.72;1.38;;;12.10;89.30;;;;;;2057896;28;20385;-91
2022/05/22 01:56:03;;;;;;;4.22;1.80;;;12.10;89.50;;;;;;2051307;28;20061;-92
2022/05/22 01:57:23;;;;;;;4.65;1.75;;;12.10;89.50;;;;;;2047759;29;20047;-91
2022/05/22 01:58:42;;;;;;;3.92;1.65;;;12.10;89.50;;;;;;2053117;28;20515;-91
2022/05/22 02:00:04;;;;;;;4.25;1.60;;;12.10;89.50;;;;;;2050675;29;20427;-92
2022/05/22 02:01:27;;;;;;;4.30;1.40;;;12.10;89.60;;;;;;2053220;28;20035;-92
2022/05/22 02:02:47;;;;;;;5.47;1.95;;;12.10;89.60;;;;;;2052685;28;20038;-91
2022/05/22 02:04:07;;;;;;;3.38;1.50;;;12.10;89.60;;;;;;2054962;28;20456;-91
2022/05/22 02:05:26;;;;;;;3.95;1.83;;;12.10;89.60;;;;;;2051372;28;20047;-92
2022/05/22 02:08:24;;;;;;;3.83;1.55;;;12.00;89.70;;;;;;2056307;28;20459;-91
2022/05/22 02:09:43;;;;;;;5.32;1.80;;;12.10;89.70;;;;;;2057544;28;20050;-92
2022/05/22 02:11:05;;;;;;;3.88;1.70;;;12.00;89.60;;;;;;2056424;28;20129;-92
2022/05/22 02:12:24;;;;;;;3.83;1.83;;;12.00;89.60;;;;;;2053496;28;20030;-92
2022/05/22 02:13:44;;;;;;;4.82;1.80;;;12.10;89.70;;;;;;2047963;28;20431;-92
2022/05/22 02:15:05;;;;;;;3.80;1.75;;;12.00;89.70;;;;;;2037787;29;20111;-91
2022/05/22 02:16:24;;;;;;;3.63;1.75;;;12.00;89.70;;;;;;2054163;28;20031;-92
2022/05/22 02:17:44;;;;;;;3.67;1.80;;;12.00;89.80;;;;;;2055302;28;20047;-92
2022/05/22 02:19:04;;;;;;;4.80;1.90;;;11.90;89.90;;;;;;2049551;28;20035;-91
2022/05/22 02:20:24;;;;;;;4.30;1.83;;;11.90;90.00;;;;;;2042379;29;20520;-92
2022/05/22 02:21:45;;;;;;;3.95;2.10;;;11.90;90.00;;;;;;2060958;28;20065;-91
2022/05/22 02:23:04;;;;;;;5.47;1.83;;;11.90;90.10;;;;;;2051347;29;20035;-93
2022/05/22 02:24:24;;;;;;;4.25;1.60;;;11.90;90.10;;;;;;2061429;28;20113;-91
2022/05/22 02:25:47;;;;;;;5.95;2.08;;;11.90;90.10;;;;;;2058470;28;20039;-92
2022/05/22 02:27:07;;;;;;;3.85;1.92;;;11.90;90.20;;;;;;2057171;28;20046;-92
2022/05/22 02:28:27;;;;;;;4.47;2.17;;;11.80;90.10;;;;;;2047698;28;20044;-91
2022/05/22 02:29:47;;;;;;;4.70;1.73;;;11.90;90.20;;;;;;2052370;28;20268;-91
2022/05/22 02:31:07;;;;;;;3.22;1.60;;;11.80;90.20;;;;;;2067147;28;20038;-92
2022/05/22 02:32:26;;;;;;;4.18;1.85;;;11.80;90.40;;;;;;2060551;28;20208;-91
2022/05/22 02:33:45;;;;;;;4.20;2.00;;;11.80;90.20;;;;;;2071997;28;20041;-92
2022/05/22 02:35:07;;;;;;;4.13;1.83;;;11.80;90.20;;;;;;2045399;29;20044;-91
2022/05/22 02:36:27;;;;;;;4.50;2.10;;;11.90;90.20;;;;;;2048407;28;20039;-92
2022/05/22 02:37:50;;;;;;;6.30;1.92;;;11.80;90.20;;;;;;2062456;28;20050;-92
2022/05/22 02:39:10;;;;;;;5.60;2.05;;;11.80;90.30;;;;;;2045272;29;20040;-94
2022/05/22 02:40:32;;;;;;;4.85;2.20;;;11.80;90.30;;;;;;2041091;29;20059;-93
2022/05/22 02:41:51;;;;;;;4.63;2.40;;;11.80;90.30;;;;;;2060669;28;20038;-94
2022/05/22 02:43:12;;;;;;;3.88;1.92;;;11.80;90.30;;;;;;2063377;28;20026;-94
2022/05/22 02:44:32;;;;;;;5.20;1.88;;;11.70;90.30;;;;;;2070092;28;20128;-93
2022/05/22 02:45:51;;;;;;;6.43;1.73;;;11.70;90.40;;;;;;2048834;28;20424;-94
2022/05/22 02:47:10;;;;;;;4.18;1.77;;;11.70;90.40;;;;;;2046501;29;20047;-94
2022/05/22 02:48:30;;;;;;;3.95;1.80;;;11.70;90.40;;;;;;2055780;28;20035;-94
2022/05/22 02:49:49;;;;;;;4.85;1.95;;;11.70;90.40;;;;;;2063438;28;20034;-94
2022/05/22 02:51:15;;;;;;;6.30;1.92;;;11.70;90.40;;;;;;2050014;28;20512;-94
2022/05/22 02:52:34;;;;;;;3.83;1.73;;;11.70;90.50;;;;;;2065580;28;20034;-93
2022/05/22 02:53:54;;;;;;;4.07;1.70;;;11.70;90.40;;;;;;2066489;28;20035;-94
2022/05/22 02:55:13;;;;;;;3.65;1.65;;;11.70;90.50;;;;;;2048248;28;20036;-94
2022/05/22 02:56:32;;;;;;;4.03;1.98;;;11.70;90.50;;;;;;2046147;28;20087;-94
2022/05/22 02:57:52;;;;;;;4.00;1.80;;;11.60;90.50;;;;;;2054283;28;20035;-94
2022/05/22 02:59:12;;;;;;;3.58;1.67;;;11.60;90.60;;;;;;2062471;28;20055;-93
2022/05/22 03:00:31;;;;;;;5.75;2.15;;;11.60;90.60;;;;;;2050879;28;20088;-94
2022/05/22 03:01:51;;;;;;;3.88;2.00;;;11.60;90.60;;;;;;2046810;28;20047;-94
2022/05/22 03:03:10;;;;;;;6.57;1.70;;;11.60;90.60;;;;;;2054962;28;20035;-93
2022/05/22 03:04:31;;;;;;;3.55;1.83;;;11.60;90.70;;;;;;2046951;29;20044;-94
2022/05/22 03:07:28;;;;;;;5.28;1.65;;;11.60;90.70;;;;;;2056625;28;20071;-93
2022/05/22 03:08:48;;;;;;;3.78;1.63;;;11.60;90.60;;;;;;2050020;29;20039;-94
2022/05/22 03:10:10;;;;;;;2.97;1.80;;;11.60;90.60;;;;;;2058168;28;20503;-95
2022/05/22 03:11:29;;;;;;;3.67;1.75;;;11.60;90.60;;;;;;2058059;28;20031;-93
2022/05/22 03:12:48;;;;;;;3.40;1.60;;;11.60;90.60;;;;;;2052203;28;20043;-93
2022/05/22 03:14:08;;;;;;;4.75;1.70;;;11.60;90.70;;;;;;2063844;28;20495;-94
2022/05/22 03:15:28;;;;;;;4.30;1.77;;;11.50;90.70;;;;;;2065210;28;20043;-94
2022/05/22 03:16:47;;;;;;;5.28;1.58;;;11.60;90.70;;;;;;2065538;28;20034;-93
2022/05/22 03:18:07;;;;;;;4.32;2.20;;;11.50;90.70;;;;;;2055065;28;20044;-93
2022/05/22 03:19:26;;;;;;;3.28;1.50;;;11.50;90.80;;;;;;2054520;28;20071;-94
2022/05/22 03:20:46;;;;;;;4.65;1.58;;;11.50;90.80;;;;;;2050797;28;20054;-94
2022/05/22 03:22:07;;;;;;;3.88;1.60;;;11.50;90.70;;;;;;2042435;29;20044;-94
2022/05/22 03:23:26;;;;;;;;;;;11.60;90.80;;;;;;2045149;28;20054;-94
2022/05/22 03:24:46;;;;;;;4.68;1.48;;;11.60;90.70;;;;;;2058036;28;20078;-93
2022/05/22 03:26:05;;;;;;;3.97;2.05;;;11.60;90.60;;;;;;2045075;29;20067;-93
2022/05/22 03:27:25;;;;;;;3.50;1.48;;;11.60;90.60;;;;;;2052349;28;20035;-94
2022/05/22 03:28:44;;;;;;;3.60;1.52;;;11.60;90.60;;;;;;2048116;28;20051;-93
2022/05/22 03:30:05;;;;;;;3.55;1.38;;;11.60;90.60;;;;;;2041534;29;20044;-94
2022/05/22 03:31:24;;;;;;;4.55;1.60;;;11.50;90.60;;;;;;2051000;28;20031;-94
2022/05/22 03:32:44;;;;;;;3.13;1.55;;;11.60;90.70;;;;;;2048172;28;20043;-93
2022/05/22 03:34:04;;;;;;;4.10;1.57;;;11.60;90.70;;;;;;2044555;28;20512;-93
2022/05/22 03:35:23;;;;;;;4.22;1.50;;;11.50;90.70;;;;;;2039854;29;20804;-93
2022/05/22 03:36:43;;;;;;;3.67;1.55;;;11.50;90.70;;;;;;2043077;29;20035;-93
2022/05/22 03:38:03;;;;;;;2.97;1.65;;;11.50;90.70;;;;;;2037916;29;20040;-93
2022/05/22 03:39:23;;;;;;;3.78;1.67;;;11.50;90.80;;;;;;2054118;28;20042;-93
2022/05/22 03:40:46;;;;;;;2.92;1.33;;;11.50;90.80;;;;;;2052574;28;20539;-93
2022/05/22 03:42:07;;;;;;;4.97;1.70;;;11.50;90.80;;;;;;2054793;28;20387;-93
2022/05/22 03:43:26;;;;;;;3.42;1.48;;;11.40;90.80;;;;;;2047896;28;20424;-94
2022/05/22 03:44:45;;;;;;;2.95;1.50;;;11.40;90.90;;;;;;2043434;28;20047;-93
2022/05/22 03:46:04;;;;;;;2.65;1.30;;;11.50;90.90;;;;;;2052252;28;20066;-93
2022/05/22 03:47:23;;;;;;;3.38;1.63;;;11.50;90.90;;;;;;2049050;28;20031;-93
2022/05/22 03:48:43;;;;;;;4.10;1.80;;;11.50;90.80;;;;;;2045648;28;20031;-93
2022/05/22 03:50:04;;;;;;;3.50;1.42;;;11.50;90.80;;;;;;2051316;28;20038;-94
2022/05/22 03:51:24;;;;;;;4.40;1.50;;;11.50;90.80;;;;;;2065147;28;20047;-94
2022/05/22 03:52:44;;;;;;;4.13;1.73;;;11.50;90.80;;;;;;2055595;28;20023;-93
2022/05/22 03:54:04;;;;;;;3.35;1.55;;;11.50;90.80;;;;;;2050032;29;20039;-94
2022/05/22 03:55:23;;;;;;;4.97;1.95;;;11.50;90.80;;;;;;2049943;28;20447;-94
2022/05/22 03:56:43;;;;;;;2.38;1.48;;;11.50;90.80;;;;;;2051489;28;20047;-94
2022/05/22 03:58:02;;;;;;;5.22;1.50;;;11.50;90.80;;;;;;2051991;28;20043;-94
2022/05/22 03:59:21;;;;;;;2.55;1.50;;;11.50;90.80;;;;;;2053005;28;20063;-94
2022/05/22 04:00:42;;;;;;;4.30;1.60;;;11.60;90.80;;;;;;2041730;29;20039;-93
2022/05/22 04:02:01;;;;;;;4.38;1.80;;;11.60;90.80;;;;;;2056382;28;20199;-94
2022/05/22 04:03:20;;;;;;;3.20;1.35;;;11.60;90.80;;;;;;2051879;28;20035;-93
2022/05/22 04:04:40;;;;;;;4.70;1.83;;;11.60;90.80;;;;;;2056104;28;20419;-93
2022/05/22 04:06:01;;;;;;;4.45;1.70;;;11.60;90.80;;;;;;2059302;28;20027;-94
2022/05/22 04:07:20;;;;;;;;;;;11.60;91.10;;;;;;2039563;29;20047;-94
2022/05/22 04:08:40;;;;;;;2.33;1.30;;;11.60;90.70;;;;;;2054357;28;20012;-94
2022/05/22 04:09:59;;;;;;;4.90;1.60;;;11.60;90.70;;;;;;2057670;28;20118;-94
2022/05/22 04:11:19;;;;;;;3.33;1.50;;;11.60;90.70;;;;;;2057190;28;20038;-93
2022/05/22 04:12:39;;;;;;;2.70;1.48;;;11.60;90.70;;;;;;2058283;28;20038;-94
2022/05/22 04:13:58;;;;;;;3.40;1.60;;;11.60;90.70;;;;;;2059018;28;20043;-93
2022/05/22 04:15:20;;;;;;;4.95;1.58;;;11.60;90.70;;;;;;2044315;28;20055;-93
2022/05/22 04:16:39;;;;;;;3.15;1.63;;;11.60;90.70;;;;;;2051559;28;20042;-93
2022/05/22 04:17:59;;;;;;;3.70;1.75;;;11.60;90.70;;;;;;2068743;28;20038;-93
2022/05/22 04:19:18;;;;;;;2.85;1.38;;;11.60;90.80;;;;;;2053021;28;20062;-93
2022/05/22 04:20:37;;;;;;;3.50;1.75;;;11.60;90.70;;;;;;2044414;29;20055;-93
2022/05/22 04:21:56;;;;;;;3.70;1.55;;;11.60;90.70;;;;;;2054782;28;20054;-94
2022/05/22 04:25:12;;;;;;;4.93;1.75;;;11.70;90.70;;;;;;2056987;28;20047;-93
2022/05/22 04:26:33;;;;;;;3.42;1.60;;;11.70;90.60;;;;;;2056811;28;20514;-93
2022/05/22 04:27:52;;;;;;;3.50;1.70;;;11.70;90.60;;;;;;2049474;29;20070;-92
2022/05/22 04:29:12;;;;;;;3.35;1.30;;;11.70;90.60;;;;;;2049441;28;20047;-93
2022/05/22 04:30:31;;;;;;;3.35;1.63;;;11.80;90.70;;;;;;2062570;28;20038;-92
2022/05/22 04:31:51;;;;;;;5.10;1.70;;;11.80;90.60;;;;;;2058089;28;20043;-93
2022/05/22 04:33:10;;;;;;;3.70;1.70;;;11.80;90.60;;;;;;2045442;29;20031;-93
2022/05/22 04:34:29;;;;;;;3.83;1.45;;;11.80;90.60;;;;;;2046707;28;20035;-94
2022/05/22 04:35:49;;;;;;;2.58;1.33;;;11.90;90.60;;;;;;2047099;29;20035;-93
2022/05/22 04:37:08;;;;;;;4.50;1.77;;;11.90;90.60;;;;;;2049219;28;20031;-93
2022/05/22 04:38:28;;;;;;;3.13;1.58;;;11.90;90.60;;;;;;2055677;28;20035;-94
2022/05/22 04:39:47;;;;;;;4.32;1.60;;;12.00;90.60;;;;;;2049094;28;20500;-94
2022/05/22 04:41:06;;;;;;;3.90;1.65;;;12.00;90.60;;;;;;2054536;28;20043;-93
2022/05/22 04:42:26;;;;;;;3.38;1.55;;;12.00;90.60;;;;;;2044807;28;20505;-93
2022/05/22 04:43:45;;;;;;;4.18;1.65;;;12.00;90.60;;;;;;2047136;28;20130;-93
2022/05/22 04:45:06;;;;;;;5.18;1.85;;;12.00;90.60;;;;;;2049544;28;20069;-93
2022/05/22 04:46:25;;;;;;;4.18;1.38;;;12.10;90.60;;;;;;2054929;28;20352;-93
2022/05/22 04:47:44;;;;;;;4.32;1.48;;;12.10;90.50;;;;;;2060951;28;20514;-93
2022/05/22 04:49:04;;;;;;;2.97;1.40;;;12.10;90.50;;;;;;2035275;29;20032;-94
2022/05/22 04:50:25;;;;;;;3.53;1.55;;;12.20;90.50;;;;;;2040961;29;20047;-93
2022/05/22 04:51:44;;;;;;;3.35;1.50;;;12.20;90.50;;;;;;2045230;29;20067;-93
2022/05/22 04:53:04;;;;;;;2.90;1.48;;;12.30;90.40;;;;;;2053207;28;20113;-93
2022/05/22 04:54:23;;;;;;;3.78;1.55;;;12.30;90.40;;;;;;2053378;28;20126;-93
2022/05/22 04:55:43;;;;;;;3.80;1.70;;;12.40;90.30;;;;;;2057334;28;20046;-93
2022/05/22 04:57:02;;;;;;;3.72;1.58;;;12.40;90.30;;;;;;2054077;28;20050;-92
2022/05/22 04:58:21;;;;;;;4.22;1.80;;;12.40;90.20;;;;;;2047744;28;20043;-93
2022/05/22 04:59:40;;;;;;;4.28;1.90;;;12.50;90.20;;;;;;2039304;28;20048;-94
2022/05/22 05:01:05;;;;;;;4.18;1.40;;;12.50;90.20;;;;;;2049013;28;20044;-93
2022/05/22 05:02:25;;;;;;;4.78;1.80;;;12.60;90.20;;;;;;2045950;28;20083;-92
2022/05/22 05:03:44;;;;;;;4.85;1.80;;;12.60;90.10;;;;;;2062110;28;20071;-93
2022/05/22 05:05:05;;;;;;;3.72;1.80;;;12.70;90.10;;;;;;2051235;29;20516;-93
2022/05/22 05:06:29;;;;;;;3.67;1.67;;;12.70;90.10;;;;;;2047382;28;20043;-92
2022/05/22 05:07:49;;;;;;;3.45;1.65;;;12.70;90.00;;;;;;2053886;28;20038;-93
2022/05/22 05:09:08;;;;;;;5.90;1.75;;;12.80;90.00;;;;;;2063764;28;20043;-93
2022/05/22 05:10:28;;;;;;;4.47;2.10;;;12.90;90.00;;;;;;2060122;28;20063;-93
2022/05/22 05:11:47;;;;;;;4.32;1.70;;;13.00;89.80;;;;;;2061597;28;20035;-93
2022/05/22 05:13:06;;;;;;;3.15;1.60;;;13.10;89.60;;;;;;2063924;28;20043;-94
2022/05/22 05:14:26;;;;;;;3.65;1.83;;;13.20;89.50;;;;;;2041744;29;20043;-93
2022/05/22 05:15:45;;;;;;;4.68;2.10;;;13.20;89.20;;;;;;2048054;28;20062;-93
2022/05/22 05:17:09;;;;;;;4.32;2.00;;;13.30;89.10;;;;;;2059134;28;20039;-93
2022/05/22 05:18:29;;;;;;;5.97;2.13;;;13.40;89.00;;;;;;2051299;28;20047;-93
2022/05/22 05:19:48;;;;;;;4.82;1.85;;;13.50;88.80;;;;;;2059069;28;20039;-92
2022/05/22 05:21:11;;;;;;;4.78;2.25;;;13.60;88.70;;;;;;2059190;28;20046;-93
2022/05/22 05:22:31;;;;;;;3.90;1.98;;;13.70;88.40;;;;;;2058283;28;20039;-94
2022/05/22 05:23:50;;;;;;;3.65;2.05;;;13.80;88.20;;;;;;2047406;28;20040;-93
2022/05/22 05:25:12;;;;;;;9.40;2.40;;;13.90;88.00;;;;;;2045063;29;20504;-93
2022/05/22 05:26:32;;;;;;;4.20;2.25;;;14.00;87.80;;;;;;2058270;28;20046;-94
2022/05/22 05:27:51;;;;;;;5.75;2.20;;;14.10;87.60;;;;;;2049073;28;20074;-92
2022/05/22 05:29:10;;;;;;;5.07;2.30;;;14.20;87.30;;;;;;2057458;28;20447;-93
2022/05/22 05:30:30;;;;;;;4.65;2.08;;;14.30;87.20;;;;;;2043010;29;20074;-93
2022/05/22 05:31:49;;;;;;;5.35;2.08;;;14.40;87.00;;;;;;2047249;28;20027;-93
2022/05/22 05:33:09;;;;;;;5.07;1.95;;;14.50;86.70;;;;;;2063997;28;20034;-93
2022/05/22 05:34:28;;;;;;;5.15;2.30;;;14.60;86.60;;;;;;2054792;28;21387;-93
2022/05/22 05:35:48;;;;;;;5.32;2.28;;;14.70;86.40;;;;;;2046894;28;20067;-92
2022/05/22 05:37:07;;;;;;;6.32;2.38;;;14.80;86.30;;;;;;2055510;28;20046;-92
2022/05/22 05:38:27;;;;;;;3.35;2.00;;;14.80;86.00;;;;;;2043670;29;20064;-91
2022/05/22 05:39:46;;;;;;;4.43;2.20;;;14.90;85.70;;;;;;2051784;29;20111;-93
2022/05/22 05:41:06;;;;;;;5.53;2.10;;;14.90;85.60;;;;;;2050826;29;20062;-93
2022/05/22 05:42:31;;;;;;;5.75;2.40;;;15.00;85.50;;;;;;2044402;29;20051;-93
2022/05/22 05:43:50;;;;;;;5.28;2.20;;;15.10;85.40;;;;;;2049564;29;20043;-93
2022/05/22 05:45:12;;;;;;;3.53;1.92;;;15.20;85.30;;;;;;2043274;29;20039;-93
2022/05/22 05:46:38;;;;;;;4.30;2.30;;;15.20;85.00;;;;;;2049629;28;20042;-94
2022/05/22 05:47:57;;;;;;;5.55;2.50;;;15.30;84.80;;;;;;2042993;29;20047;-93
2022/05/22 05:49:16;;;;;;;5.10;2.38;;;15.40;84.60;;;;;;2054759;28;20492;-91
2022/05/22 05:50:38;;;;;;;6.15;2.03;;;15.40;84.50;;;;;;2035883;29;20601;-94
2022/05/22 05:51:57;;;;;;;3.70;1.95;;;15.40;84.40;;;;;;2058601;28;20038;-91
2022/05/22 05:53:17;;;;;;;4.38;1.98;;;15.50;84.40;;;;;;2062292;28;20035;-91
2022/05/22 05:54:36;;;;;;;4.53;2.03;;;15.60;84.30;;;;;;2050943;28;20397;-91
2022/05/22 05:55:55;;;;;;;3.25;1.90;;;15.60;84.10;;;;;;2062393;28;20043;-91
2022/05/22 05:57:15;;;;;;;4.10;2.08;;;15.60;84.00;;;;;;2053215;28;20040;-94
2022/05/22 05:58:34;;;;;;;4.35;1.80;;;15.70;84.00;;;;;;2042506;29;20040;-91
2022/05/22 05:59:54;;;;;;;4.80;1.83;;;15.70;83.90;;;;;;2038930;29;20051;-91
2022/05/22 06:01:16;;;;;;;4.60;2.05;;;15.70;83.80;;;;;;2054645;28;20094;-91
2022/05/22 06:02:35;;;;;;;3.05;1.60;;;15.80;83.70;;;;;;2051471;29;20035;-91
2022/05/22 06:03:54;;;;;;;4.85;1.90;;;15.80;83.50;;;;;;2052778;28;20043;-91
2022/05/22 06:05:14;;;;;;;4.18;1.60;;;15.90;83.40;;;;;;2043064;29;20048;-92
2022/05/22 06:06:34;;;;;;;4.47;1.83;;;16.00;83.30;;;;;;2051671;28;20058;-92
2022/05/22 06:07:54;;;;;;;3.58;1.60;;;16.00;83.20;;;;;;2048361;28;20047;-91
2022/05/22 06:09:13;;;;;;;4.40;1.70;;;16.00;83.10;;;;;;2033726;29;20070;-92
2022/05/22 06:10:32;;;;;;;4.05;2.00;;;16.00;82.90;;;;;;2043084;29;20039;-91
2022/05/22 06:11:52;;;;;;;3.20;1.80;;;16.10;82.90;;;;;;2046171;29;20043;-91
2022/05/22 06:13:11;;;;;;;5.28;1.90;;;16.20;82.70;;;;;;2042977;29;20043;-91
2022/05/22 06:14:31;;;;;;;5.07;1.63;;;16.20;82.60;;;;;;2039099;29;20047;-91
2022/05/22 06:15:50;;;;;;;3.92;1.58;;;16.20;82.40;;;;;;2044785;29;20068;-91
2022/05/22 06:17:10;;;;;;;5.95;1.70;;;16.30;82.30;;;;;;2056813;28;20043;-91
2022/05/22 06:18:29;;;;;;;3.63;1.52;;;16.30;82.20;;;;;;2053259;28;20031;-92
2022/05/22 06:19:54;;;;;;;3.78;1.40;;;16.30;82.00;;;;;;2039459;29;20064;-91
2022/05/22 06:21:17;;;;;;;3.03;1.50;;;16.40;82.00;;;;;;2033047;29;20044;-91
2022/05/22 06:22:36;;;;;;;3.05;1.38;;;16.40;81.70;;;;;;2046914;28;20047;-91
2022/05/22 06:23:56;;;;;;;4.32;1.40;;;16.40;81.70;;;;;;2056209;28;20051;-90
2022/05/22 06:25:17;;;;;;;4.13;1.40;;;16.40;81.60;;;;;;2046806;29;20113;-91
2022/05/22 06:26:36;;;;;;;3.10;1.13;;;16.50;81.60;;;;;;2048008;29;20035;-91
2022/05/22 06:27:55;;;;;;;3.20;1.17;;;16.50;81.50;;;;;;2051111;29;20077;-91
2022/05/22 06:29:15;;;;;;;3.25;1.23;;;16.50;81.40;;;;;;2046370;28;20043;-92
2022/05/22 06:30:34;;;;;;;2.33;1.05;;;16.60;81.30;;;;;;2039815;29;20045;-91
2022/05/22 06:31:53;;;;;;;3.17;1.00;;;16.60;81.20;;;;;;2044275;29;20076;-91
2022/05/22 06:33:17;;;;;;;3.50;1.20;;;16.70;81.00;;;;;;2044843;29;20027;-92
2022/05/22 06:34:41;;;;;;;2.60;1.10;;;16.70;80.80;;;;;;2036373;29;20036;-92
2022/05/22 06:36:06;;;;;;;1.98;0.93;;;16.70;80.70;;;;;;2039035;29;20118;-91
2022/05/22 06:37:25;;;;;;;3.28;1.10;;;16.70;80.50;;;;;;2027720;29;20052;-92
2022/05/22 06:40:22;;;;;;;2.60;0.93;;;16.80;80.80;;;;;;2041581;29;20052;-92
2022/05/22 06:41:42;;;;;;;3.30;1.00;;;16.80;80.10;;;;;;2058644;28;20046;-91
2022/05/22 06:43:01;;;;;;;2.25;1.00;;;16.80;79.90;;;;;;2040190;29;20051;-91
2022/05/22 06:44:21;;;;;;;2.58;0.80;;;16.80;79.80;;;;;;2048755;29;20039;-91
2022/05/22 06:45:41;;;;;;;3.08;1.05;;;16.80;79.70;;;;;;2049235;28;20486;-91
2022/05/22 06:47:04;;;;;;;2.53;0.93;;;16.90;79.50;;;;;;2051617;29;20448;-91
2022/05/22 06:48:23;;;;;;;3.60;1.02;;;16.90;79.40;;;;;;2051613;29;20039;-91
2022/05/22 06:49:43;;;;;;;3.28;1.00;;;16.90;79.40;;;;;;2057617;28;20046;-91
2022/05/22 06:51:03;;;;;;;3.15;0.70;;;16.90;79.30;;;;;;2060978;28;20047;-92
2022/05/22 06:52:22;;;;;;;3.30;0.80;;;17.00;79.20;;;;;;2056460;28;20030;-91
2022/05/22 06:53:42;;;;;;;1.92;0.70;;;17.00;78.90;;;;;;2047793;28;20138;-91
2022/05/22 06:55:02;;;;;;;3.17;0.88;;;17.10;78.90;;;;;;2040206;29;20051;-91
2022/05/22 06:56:22;;;;;;;3.58;0.90;;;17.10;78.80;;;;;;2053557;28;20043;-91
2022/05/22 06:57:42;;;;;;;2.17;1.13;;;17.10;78.80;;;;;;2062426;28;20038;-90
2022/05/22 06:59:01;;;;;;;4.88;1.00;;;17.20;78.60;;;;;;2052832;28;20047;-92
2022/05/22 07:00:21;;;;;;;5.32;1.13;;;17.20;78.50;;;;;;2041235;28;20047;-91
2022/05/22 07:01:40;;;;;;;4.15;0.80;;;17.20;78.40;;;;;;2051732;28;20042;-91
2022/05/22 07:03:00;;;;;;;4.93;1.20;;;17.30;78.40;;;;;;2040935;29;20060;-92
2022/05/22 07:04:22;;;;;;;3.20;0.70;;;17.40;78.30;;;;;;2050969;28;20042;-91
2022/05/22 07:05:41;;;;;;;3.65;1.00;;;17.40;78.10;;;;;;2048002;28;20467;-91
2022/05/22 07:07:01;;;;;;;3.10;0.95;;;17.50;78.00;;;;;;2051457;28;20492;-91